Time;durP1;ratioP1;P1;durP2;ratioP2;P2;SDS_P1;SDS_P2;PMS_P1;PMS_P2;Temp;Humidity;BMP_temperature;BMP_pressure;BME280_temperature;BME280_humidity;BME280_pressure;Samples;Min_cycle;Max_cycle;Signal;HPM_P1;HPM_P2
2023/09/17 00:02:02;;;;;;;15.00;12.60;;;;;;;15.05;73.16;101610.57;108199;1254;61810;-73
2023/09/17 00:04:29;;;;;;;13.60;12.10;;;;;;;15.08;73.31;101611.06;108271;1254;64134;-74
2023/09/17 00:06:56;;;;;;;13.50;12.00;;;;;;;15.09;73.33;101612.26;108433;1254;74494;-73
2023/09/17 00:09:23;;;;;;;15.50;13.90;;;;;;;15.14;73.23;101610.34;108409;1254;71589;-73
2023/09/17 00:11:50;;;;;;;16.20;14.00;;;;;;;15.16;73.30;101609.70;108283;1259;72892;-72
2023/09/17 00:14:16;;;;;;;14.50;13.00;;;;;;;15.19;73.38;101611.34;108105;1254;61218;-72
2023/09/17 00:16:45;;;;;;;17.80;15.90;;;;;;;15.23;73.48;101608.98;108014;1255;61091;-72
2023/09/17 00:19:12;;;;;;;19.50;17.40;;;;;;;15.27;73.64;101614.77;108271;1258;74411;-72
2023/09/17 00:21:39;;;;;;;18.80;16.90;;;;;;;15.30;73.76;101615.69;107712;1254;72839;-72
2023/09/17 00:24:06;;;;;;;19.70;17.70;;;;;;;15.33;73.80;101619.64;108139;1254;72759;-72
2023/09/17 00:26:33;;;;;;;18.90;16.10;;;;;;;15.35;73.88;101621.37;108162;1254;61894;-72
2023/09/17 00:29:00;;;;;;;18.50;16.50;;;;;;;15.35;73.82;101619.97;107919;1253;61409;-72
2023/09/17 00:31:30;;;;;;;18.20;16.00;;;;;;;15.35;73.77;101613.77;108195;1254;74643;-72
2023/09/17 00:33:56;;;;;;;18.50;16.40;;;;;;;15.35;73.71;101613.08;108054;1254;71957;-73
2023/09/17 00:36:23;;;;;;;18.50;16.40;;;;;;;15.35;73.81;101612.70;100284;1253;10001948;-72
2023/09/17 00:38:51;;;;;;;17.90;16.00;;;;;;;15.36;73.93;101609.80;93080;1253;10003297;-74
2023/09/17 00:41:21;;;;;;;19.00;16.90;;;;;;;15.37;73.90;101607.11;108018;1260;61884;-72
2023/09/17 00:43:48;;;;;;;17.50;15.70;;;;;;;15.37;73.94;101608.52;108128;1256;61113;-71
2023/09/17 00:46:15;;;;;;;19.20;16.80;;;;;;;15.36;73.87;101605.27;107889;1255;74660;-73
2023/09/17 00:48:42;;;;;;;20.40;18.20;;;;;;;15.37;74.00;101611.31;109106;1255;72549;-73
2023/09/17 00:51:09;;;;;;;18.70;16.80;;;;;;;15.38;74.02;101609.70;108263;1254;71637;-73
2023/09/17 00:53:36;;;;;;;18.20;16.30;;;;;;;15.39;74.06;101612.55;107829;1254;61959;-73
2023/09/17 00:56:03;;;;;;;18.80;15.60;;;;;;;15.39;74.04;101613.67;108095;1259;61163;-73
2023/09/17 00:58:33;;;;;;;17.00;15.30;;;;;;;15.40;74.04;101611.73;107941;1254;74665;-72
2023/09/17 01:01:03;;;;;;;17.50;15.30;;;;;;;15.40;74.02;101615.69;108123;1260;72022;-72
2023/09/17 01:03:31;;;;;;;17.30;15.50;;;;;;;15.39;73.90;101612.71;107907;1255;72912;-72
2023/09/17 01:06:03;;;;;;;18.50;16.50;;;;;;;15.36;73.97;101613.78;108243;1253;62371;-73
2023/09/17 01:08:36;;;;;;;19.00;17.10;;;;;;;15.34;73.90;101612.64;109193;1254;60209;-73
2023/09/17 01:11:03;;;;;;;18.90;16.70;;;;;;;15.32;73.97;101612.57;108932;1254;73431;-73
2023/09/17 01:13:30;;;;;;;18.00;16.10;;;;;;;15.32;73.95;101611.23;108196;1259;71833;-72
2023/09/17 01:15:59;;;;;;;17.10;15.30;;;;;;;15.31;74.09;101609.17;107979;1259;72679;-73
2023/09/17 01:18:27;;;;;;;18.50;15.80;;;;;;;15.30;73.96;101610.85;108002;1254;60932;-73
2023/09/17 01:21:00;;;;;;;18.00;15.60;;;;;;;15.28;74.05;101613.31;108028;1254;61112;-73
2023/09/17 01:23:38;;;;;;;18.10;15.90;;;;;;;15.25;73.98;101610.39;107976;1254;74770;-73
2023/09/17 01:26:13;;;;;;;19.50;16.50;;;;;;;15.24;74.16;101606.14;108991;1254;73638;-73
2023/09/17 01:28:40;;;;;;;19.50;17.40;;;;;;;15.24;74.21;101604.48;107990;1253;71177;-72
2023/09/17 01:31:09;;;;;;;18.70;16.70;;;;;;;15.25;74.38;101607.16;108050;1254;62339;-73
2023/09/17 01:33:35;;;;;;;19.00;17.10;;;;;;;15.24;74.40;101602.73;107871;1254;61045;-73
2023/09/17 01:36:04;;;;;;;19.20;15.80;;;;;;;15.22;74.52;101605.63;108040;1254;74470;-72
2023/09/17 01:38:32;;;;;;;19.20;17.10;;;;;;;15.22;74.58;101599.98;108140;1254;72708;-72
2023/09/17 01:41:00;;;;;;;18.00;16.10;;;;;;;15.19;74.55;101600.30;108013;1258;72654;-72
2023/09/17 01:43:27;;;;;;;19.20;17.20;;;;;;;15.17;74.73;101594.21;107830;1259;61645;-72
2023/09/17 01:45:54;;;;;;;20.40;17.30;;;;;;;15.17;74.77;101595.41;108192;1254;60141;-72
2023/09/17 01:48:22;;;;;;;18.40;16.50;;;;;;;15.18;74.85;101594.75;108122;1260;74498;-72
2023/09/17 01:50:50;;;;;;;18.70;16.70;;;;;;;15.17;74.77;101594.27;108192;1254;72723;-72
2023/09/17 01:53:17;;;;;;;18.30;16.30;;;;;;;15.19;74.85;101593.89;107776;1255;72763;-71
2023/09/17 01:55:44;;;;;;;18.30;16.40;;;;;;;15.20;74.84;101591.58;108020;1257;61814;-71
2023/09/17 01:58:11;;;;;;;18.80;16.80;;;;;;;15.20;74.89;101590.77;107809;1259;61033;-72
2023/09/17 02:00:38;;;;;;;17.40;15.60;;;;;;;15.21;74.83;101589.38;107900;1254;74538;-71
2023/09/17 02:03:05;;;;;;;18.10;16.30;;;;;;;15.22;74.88;101591.64;108146;1254;72537;-72
2023/09/17 02:05:33;;;;;;;18.70;16.80;;;;;;;15.23;74.94;101592.26;108834;1254;72816;-72
2023/09/17 02:08:00;;;;;;;17.30;15.50;;;;;;;15.24;74.91;101595.05;107914;1254;61284;-73
2023/09/17 02:10:26;;;;;;;18.90;15.70;;;;;;;15.25;74.91;101593.86;107927;1259;60047;-73
2023/09/17 02:12:53;;;;;;;18.10;15.80;;;;;;;15.24;74.83;101592.85;108034;1253;74712;-73
2023/09/17 02:15:20;;;;;;;17.20;15.40;;;;;;;15.22;74.73;101589.81;108331;1259;72585;-73
2023/09/17 02:17:50;;;;;;;17.50;15.70;;;;;;;15.21;74.76;101586.48;108180;1254;72353;-73
2023/09/17 02:20:17;;;;;;;17.50;15.70;;;;;;;15.19;74.80;101588.52;108140;1253;60484;-73
2023/09/17 02:22:44;;;;;;;16.10;14.50;;;;;;;15.19;74.59;101587.91;107924;1254;59973;-73
2023/09/17 02:25:11;;;;;;;17.10;15.40;;;;;;;15.17;74.64;101586.20;108055;1259;74600;-73
2023/09/17 02:27:38;;;;;;;16.40;14.80;;;;;;;15.17;74.61;101582.96;107865;1259;72663;-72
2023/09/17 02:30:06;;;;;;;16.20;14.50;;;;;;;15.15;74.63;101585.91;108309;1257;72631;-72
2023/09/17 02:32:33;;;;;;;15.60;14.00;;;;;;;15.14;74.61;101584.67;108874;1253;63009;-72
2023/09/17 02:35:08;;;;;;;16.20;14.60;;;;;;;15.13;74.57;101584.27;108727;1254;59554;-72
2023/09/17 02:37:35;;;;;;;15.60;14.00;;;;;;;15.12;74.47;101582.02;108080;1258;74679;-72
2023/09/17 02:40:04;;;;;;;15.90;14.30;;;;;;;15.10;74.64;101584.80;107933;1254;71492;-72
2023/09/17 02:42:31;;;;;;;16.30;14.70;;;;;;;15.09;74.48;101583.23;108611;1257;71693;-72
2023/09/17 02:44:58;;;;;;;16.20;14.50;;;;;;;15.07;74.51;101585.81;108004;1253;61691;-72
2023/09/17 02:47:24;;;;;;;16.80;14.20;;;;;;;15.06;74.46;101582.90;107975;1259;61340;-73
2023/09/17 02:49:52;;;;;;;15.30;13.70;;;;;;;15.05;74.47;101584.19;107853;1254;73454;-72
2023/09/17 02:52:19;;;;;;;15.80;14.10;;;;;;;15.05;74.43;101585.96;108193;1254;72682;-73
2023/09/17 02:54:46;;;;;;;15.60;14.00;;;;;;;15.04;74.40;101588.34;107865;1258;71149;-72
2023/09/17 02:57:13;;;;;;;15.10;13.60;;;;;;;15.04;74.33;101585.48;107883;1253;60265;-73
2023/09/17 02:59:40;;;;;;;14.90;13.40;;;;;;;15.03;74.35;101588.00;107981;1254;61215;-72
2023/09/17 03:02:07;;;;;;;16.20;14.50;;;;;;;15.03;74.25;101587.19;108183;1254;74496;-73
2023/09/17 03:04:34;;;;;;;15.10;13.50;;;;;;;15.01;74.30;101588.05;107941;1254;72555;-73
2023/09/17 03:07:01;;;;;;;14.40;12.90;;;;;;;15.00;74.33;101582.89;108020;1254;71318;-72
2023/09/17 03:09:29;;;;;;;14.60;13.20;;;;;;;14.99;74.19;101582.17;107831;1254;61796;-73
2023/09/17 03:11:56;;;;;;;14.60;13.20;;;;;;;14.97;74.27;101580.29;108011;1257;61204;-73
2023/09/17 03:14:23;;;;;;;13.50;12.10;;;;;;;14.96;74.27;101579.23;107878;1254;74474;-73
2023/09/17 03:16:50;;;;;;;13.30;12.00;;;;;;;14.94;74.34;101578.19;107994;1254;72948;-73
2023/09/17 03:19:19;;;;;;;12.30;11.10;;;;;;;14.89;74.32;101576.73;107841;1254;71483;-73
2023/09/17 03:21:46;;;;;;;12.20;10.90;;;;;;;14.79;74.24;101577.48;107913;1254;62045;-75
2023/09/17 03:24:16;;;;;;;11.50;10.40;;;;;;;14.68;74.16;101579.31;108030;1254;60875;-74
2023/09/17 03:26:43;;;;;;;11.40;10.20;;;;;;;14.56;74.36;101575.20;108229;1253;73122;-74
2023/09/17 03:29:12;;;;;;;10.60;9.60;;;;;;;14.44;74.39;101578.58;107860;1254;72455;-73
2023/09/17 03:31:41;;;;;;;10.80;9.80;;;;;;;14.31;74.34;101577.17;108088;1254;73147;-73
2023/09/17 03:34:09;;;;;;;10.50;9.60;;;;;;;14.16;74.58;101578.35;107993;1260;61824;-72
2023/09/17 03:36:37;;;;;;;10.80;9.80;;;;;;;14.02;74.74;101580.27;107945;1254;61267;-73
2023/09/17 03:39:08;;;;;;;10.50;9.50;;;;;;;13.95;74.90;101578.05;107871;1254;74645;-73
2023/09/17 03:41:39;;;;;;;11.60;10.40;;;;;;;13.87;75.08;101582.70;108133;1254;72855;-73
2023/09/17 03:44:09;;;;;;;11.60;10.50;;;;;;;13.81;75.17;101582.65;108532;1253;72577;-73
2023/09/17 03:46:37;;;;;;;11.10;10.10;;;;;;;13.80;75.27;101583.50;108537;1254;61096;-73
2023/09/17 03:49:04;;;;;;;11.50;10.40;;;;;;;13.83;75.45;101586.58;107946;1260;61224;-73
2023/09/17 03:51:31;;;;;;;11.60;10.40;;;;;;;13.90;75.46;101582.73;107988;1254;73386;-73
2023/09/17 03:53:59;;;;;;;11.30;10.20;;;;;;;13.98;75.46;101583.98;107977;1253;72730;-73
2023/09/17 03:56:26;;;;;;;11.50;10.30;;;;;;;14.04;75.38;101582.86;108203;1254;72648;-72
2023/09/17 03:58:53;;;;;;;11.50;10.40;;;;;;;14.10;75.23;101582.48;107874;1254;61781;-72
2023/09/17 04:01:21;;;;;;;11.80;10.60;;;;;;;14.15;75.11;101580.27;108039;1254;60475;-72
2023/09/17 04:03:49;;;;;;;12.00;10.80;;;;;;;14.18;75.10;101579.23;108090;1254;74912;-72
2023/09/17 04:06:16;;;;;;;18.70;11.50;;;;;;;14.21;74.92;101585.23;108121;1255;71228;-72
2023/09/17 04:08:44;;;;;;;13.40;11.80;;;;;;;14.22;74.86;101582.33;108095;1254;72535;-72
2023/09/17 04:11:15;;;;;;;15.80;12.40;;;;;;;14.22;74.81;101584.90;108201;1254;61994;-73
2023/09/17 04:13:43;;;;;;;13.40;12.00;;;;;;;14.24;74.88;101583.41;108084;1253;61115;-72
2023/09/17 04:16:11;;;;;;;18.80;11.80;;;;;;;14.30;74.91;101587.17;108057;1254;74729;-72
2023/09/17 04:18:38;;;;;;;14.00;12.20;;;;;;;14.35;74.95;101591.45;108084;1254;72501;-73
2023/09/17 04:21:05;;;;;;;16.60;12.40;;;;;;;14.38;74.87;101595.06;108187;1254;72683;-73
2023/09/17 04:23:31;;;;;;;15.80;12.20;;;;;;;14.42;74.88;101594.67;107975;1254;61138;-73
2023/09/17 04:25:58;;;;;;;14.60;12.00;;;;;;;14.48;74.90;101597.15;108053;1254;61137;-73
2023/09/17 04:28:25;;;;;;;13.40;12.10;;;;;;;14.54;75.01;101599.00;108168;1254;73407;-73
2023/09/17 04:30:52;;;;;;;13.20;11.70;;;;;;;14.61;75.14;101601.91;108115;1254;72806;-72
2023/09/17 04:33:20;;;;;;;13.00;11.70;;;;;;;14.69;75.17;101600.55;108222;1256;72410;-73
2023/09/17 04:35:47;;;;;;;13.40;12.00;;;;;;;14.77;75.30;101598.23;108117;1254;60980;-72
2023/09/17 04:38:14;;;;;;;13.40;12.00;;;;;;;14.87;75.35;101602.55;108413;1254;61179;-72
2023/09/17 04:40:42;;;;;;;13.20;11.90;;;;;;;14.96;75.48;101602.55;107989;1254;75181;-73
2023/09/17 04:43:12;;;;;;;13.60;12.30;;;;;;;15.05;75.56;101605.61;108250;1254;72763;-72
2023/09/17 04:45:39;;;;;;;13.70;12.30;;;;;;;15.12;75.69;101604.78;107948;1254;71756;-72
2023/09/17 04:48:16;;;;;;;13.80;12.50;;;;;;;15.22;75.81;101605.31;107922;1254;61094;-72
2023/09/17 04:50:44;;;;;;;13.90;12.60;;;;;;;15.34;76.04;101607.52;108098;1254;60384;-73
2023/09/17 04:53:14;;;;;;;;;;;;;;;15.49;76.22;101605.20;108168;1254;73645;-73
2023/09/17 04:55:44;;;;;;;13.00;11.80;;;;;;;15.63;76.26;101604.73;108063;1254;73962;-73
2023/09/17 04:58:13;;;;;;;13.30;12.00;;;;;;;15.74;76.29;101606.51;107953;1254;72326;-74
2023/09/17 05:00:40;;;;;;;11.10;10.10;;;;;;;15.81;76.26;101609.21;108163;1254;62805;-73
2023/09/17 05:03:08;;;;;;;12.40;11.20;;;;;;;15.84;75.98;101605.39;108297;1254;61145;-73
2023/09/17 05:05:35;;;;;;;12.80;11.60;;;;;;;15.79;75.88;101605.98;107929;1254;73382;-73
2023/09/17 05:08:03;;;;;;;12.90;11.70;;;;;;;15.81;76.02;101607.70;108082;1254;71598;-73
2023/09/17 05:10:30;;;;;;;12.60;11.40;;;;;;;15.83;76.08;101611.09;108015;1254;72529;-73
2023/09/17 05:12:57;;;;;;;10.90;9.90;;;;;;;15.84;76.19;101609.49;108050;1257;61112;-73
2023/09/17 05:15:24;;;;;;;13.60;12.30;;;;;;;15.85;76.26;101610.67;108233;1254;61237;-74
2023/09/17 05:17:52;;;;;;;13.00;11.80;;;;;;;15.89;76.37;101612.09;107916;1254;74039;-73
2023/09/17 05:20:21;;;;;;;12.70;11.50;;;;;;;15.99;76.54;101612.38;108224;1254;72448;-73
2023/09/17 05:22:48;;;;;;;12.10;11.00;;;;;;;16.12;76.63;101612.81;107922;1254;72428;-73
2023/09/17 05:25:15;;;;;;;11.60;10.50;;;;;;;16.21;76.86;101609.59;107970;1253;61112;-73
2023/09/17 05:27:43;;;;;;;11.80;10.70;;;;;;;16.25;76.51;101612.55;107966;1254;61260;-73
2023/09/17 05:30:12;;;;;;;12.70;11.50;;;;;;;16.29;76.57;101610.62;107919;1254;74640;-73
2023/09/17 05:32:39;;;;;;;11.90;10.80;;;;;;;16.39;76.67;101617.89;107991;1254;71617;-73
2023/09/17 05:35:07;;;;;;;12.70;11.40;;;;;;;16.48;76.59;101617.09;107942;1254;72439;-72
2023/09/17 05:37:35;;;;;;;12.30;11.10;;;;;;;16.48;76.30;101617.95;108104;1254;61979;-73
2023/09/17 05:40:06;;;;;;;11.70;10.50;;;;;;;16.45;76.09;101619.08;107966;1254;60245;-72
2023/09/17 05:42:33;;;;;;;14.00;12.60;;;;;;;16.44;76.27;101616.86;108131;1254;74551;-72
2023/09/17 05:45:00;;;;;;;13.00;11.80;;;;;;;16.50;76.32;101614.55;108004;1253;71578;-70
2023/09/17 05:47:27;;;;;;;13.00;11.80;;;;;;;16.63;76.63;101611.95;108229;1257;72651;-73
2023/09/17 05:49:55;;;;;;;12.40;11.20;;;;;;;16.77;76.56;101611.36;107798;1256;62115;-73
2023/09/17 05:52:23;;;;;;;13.10;11.80;;;;;;;16.87;76.33;101610.43;107931;1254;61218;-73
2023/09/17 05:54:51;;;;;;;13.40;12.20;;;;;;;17.00;76.37;101611.10;107992;1254;74644;-72
2023/09/17 05:57:18;;;;;;;14.00;12.60;;;;;;;17.15;76.27;101604.26;107926;1254;72656;-71
2023/09/17 05:59:45;;;;;;;13.10;11.90;;;;;;;17.33;76.20;101606.72;108343;1256;73103;-72
2023/09/17 06:02:12;;;;;;;12.80;11.60;;;;;;;17.48;76.11;101607.63;107844;1254;61833;-72
2023/09/17 06:04:40;;;;;;;13.70;12.20;;;;;;;17.60;75.58;101607.46;108016;1253;61090;-72
2023/09/17 06:07:08;;;;;;;13.60;12.30;;;;;;;17.67;75.13;101607.52;107959;1254;74774;-72
2023/09/17 06:09:35;;;;;;;14.60;13.20;;;;;;;17.74;74.82;101605.38;108055;1254;72884;-72
2023/09/17 06:12:03;;;;;;;15.40;13.80;;;;;;;17.86;74.79;101607.94;108365;1254;71962;-72
2023/09/17 06:14:30;;;;;;;13.90;12.50;;;;;;;17.96;74.32;101606.73;107988;1254;62043;-72
2023/09/17 06:16:57;;;;;;;13.80;12.40;;;;;;;18.03;73.95;101612.73;108073;1253;61682;-72
2023/09/17 06:19:27;;;;;;;14.60;13.20;;;;;;;18.04;73.54;101610.35;108252;1254;75245;-73
2023/09/17 06:21:54;;;;;;;15.10;13.60;;;;;;;18.08;73.36;101611.63;108050;1257;72624;-72
2023/09/17 06:24:22;;;;;;;14.70;13.30;;;;;;;18.16;72.94;101615.13;108002;1253;72345;-72
2023/09/17 06:26:50;;;;;;;15.10;13.60;;;;;;;18.17;72.55;101618.85;107919;1254;61895;-72
2023/09/17 06:29:17;;;;;;;15.30;13.80;;;;;;;18.14;72.39;101612.83;108011;1253;61212;-72
2023/09/17 06:31:44;;;;;;;13.70;12.40;;;;;;;18.18;72.36;101616.80;107959;1254;73691;-71
2023/09/17 06:34:16;;;;;;;15.00;13.50;;;;;;;18.24;72.19;101615.39;107721;1254;72965;-72
2023/09/17 06:36:44;;;;;;;14.50;13.00;;;;;;;18.33;72.36;101616.30;108170;1254;73313;-72
2023/09/17 06:39:13;;;;;;;16.10;14.50;;;;;;;18.44;72.16;101613.55;107882;1257;61614;-72
2023/09/17 06:41:41;;;;;;;14.70;13.40;;;;;;;18.51;71.86;101611.17;108234;1254;60115;-72
2023/09/17 06:44:10;;;;;;;14.70;13.30;;;;;;;18.57;71.66;101616.47;107980;1254;73498;-72
2023/09/17 06:46:37;;;;;;;15.50;14.10;;;;;;;18.66;71.45;101617.67;107887;1254;73856;-72
2023/09/17 06:49:04;;;;;;;15.00;13.50;;;;;;;18.75;71.02;101617.67;107906;1254;72630;-72
2023/09/17 06:51:32;;;;;;;14.50;13.10;;;;;;;18.90;70.96;101620.02;107944;1257;62334;-73
2023/09/17 06:53:59;;;;;;;13.90;12.60;;;;;;;19.10;70.92;101617.90;108474;1254;61119;-72
2023/09/17 06:56:27;;;;;;;13.90;12.60;;;;;;;19.26;70.60;101620.38;107998;1254;74701;-73
2023/09/17 06:58:54;;;;;;;15.20;13.70;;;;;;;19.33;69.92;101618.77;107960;1254;72441;-73
2023/09/17 07:01:21;;;;;;;14.10;12.80;;;;;;;19.27;69.35;101622.15;107989;1253;72448;-73
2023/09/17 07:03:49;;;;;;;14.70;13.30;;;;;;;19.23;69.28;101622.85;107941;1254;61831;-73
2023/09/17 07:06:20;;;;;;;13.50;12.00;;;;;;;19.32;69.49;101617.81;107982;1254;61301;-73
2023/09/17 07:08:49;;;;;;;12.90;11.70;;;;;;;19.45;69.21;101621.34;108195;1254;74768;-73
2023/09/17 07:11:16;;;;;;;13.00;11.70;;;;;;;19.56;68.77;101623.08;108335;1253;71218;-73
2023/09/17 07:13:42;;;;;;;12.80;11.50;;;;;;;19.65;68.33;101617.84;108007;1254;72627;-72
2023/09/17 07:16:10;;;;;;;13.40;12.00;;;;;;;19.75;67.80;101617.82;108043;1254;61890;-72
2023/09/17 07:18:37;;;;;;;14.20;12.80;;;;;;;19.79;67.05;101616.45;108043;1257;61078;-73
2023/09/17 07:21:03;;;;;;;14.90;13.00;;;;;;;19.87;66.72;101613.52;108148;1254;74608;-72
2023/09/17 07:23:30;;;;;;;13.70;12.40;;;;;;;20.01;66.31;101612.83;108020;1254;71363;-73
2023/09/17 07:25:57;;;;;;;14.00;12.50;;;;;;;20.11;65.55;101608.65;108008;1254;71429;-72
2023/09/17 07:28:24;;;;;;;14.30;12.90;;;;;;;20.16;65.00;101604.01;108213;1253;62014;-72
2023/09/17 07:30:57;;;;;;;14.50;13.00;;;;;;;20.27;64.68;101603.51;108015;1254;61090;-72
2023/09/17 07:33:24;;;;;;;14.40;13.00;;;;;;;20.39;64.16;101601.31;108043;1254;75544;-72
2023/09/17 07:35:52;;;;;;;14.50;13.00;;;;;;;20.51;63.81;101605.20;107983;1254;72506;-74
2023/09/17 07:38:19;;;;;;;16.10;13.30;;;;;;;20.65;63.28;101599.04;108065;1254;72463;-72
2023/09/17 07:40:48;;;;;;;14.60;13.10;;;;;;;20.77;62.68;101598.53;108157;1254;61107;-72
2023/09/17 07:43:15;;;;;;;14.80;13.20;;;;;;;20.92;62.16;101592.06;108040;1253;61339;-73
2023/09/17 07:45:42;;;;;;;14.00;12.60;;;;;;;21.06;61.78;101592.27;108125;1254;74736;-73
2023/09/17 07:48:10;;;;;;;15.30;12.90;;;;;;;21.21;61.20;101587.18;108002;1253;72788;-73
2023/09/17 07:50:37;;;;;;;13.50;12.10;;;;;;;21.35;60.69;101583.86;108005;1254;72429;-73
2023/09/17 07:53:07;;;;;;;14.80;12.20;;;;;;;21.51;60.23;101581.69;107903;1254;61403;-73
2023/09/17 07:55:34;;;;;;;13.00;11.70;;;;;;;21.65;59.69;101583.17;108016;1254;60502;-72
2023/09/17 07:58:01;;;;;;;12.40;10.90;;;;;;;21.77;59.39;101582.24;108198;1257;74371;-73
2023/09/17 08:00:28;;;;;;;12.80;11.50;;;;;;;21.90;58.85;101578.73;108152;1254;72589;-72
2023/09/17 08:02:55;;;;;;;12.10;10.90;;;;;;;22.02;58.42;101572.83;108032;1254;72629;-73
2023/09/17 08:05:25;;;;;;;11.20;10.00;;;;;;;22.15;57.80;101572.20;107946;1254;62100;-73
2023/09/17 08:07:51;;;;;;;12.90;10.20;;;;;;;22.24;57.18;101571.50;108601;1254;61074;-73
2023/09/17 08:10:18;;;;;;;11.10;9.90;;;;;;;22.34;56.79;101568.70;107871;1254;74647;-72
2023/09/17 08:12:45;;;;;;;12.40;9.90;;;;;;;22.47;56.12;101566.41;108526;1253;72709;-73
2023/09/17 08:15:14;;;;;;;12.40;10.70;;;;;;;22.60;55.56;101562.23;108039;1254;70432;-74
2023/09/17 08:17:43;;;;;;;12.80;10.50;;;;;;;22.70;54.91;101559.94;108191;1254;61229;-73
2023/09/17 08:20:11;;;;;;;10.50;9.30;;;;;;;22.80;54.62;101560.71;108080;1254;61203;-73
2023/09/17 08:22:39;;;;;;;12.90;10.20;;;;;;;22.91;53.86;101560.41;108097;1253;74798;-74
2023/09/17 08:25:09;;;;;;;11.40;9.80;;;;;;;23.02;53.66;101556.79;108076;1254;71359;-74
2023/09/17 08:27:37;;;;;;;10.70;8.80;;;;;;;23.17;53.64;101554.12;107919;1254;73872;-72
2023/09/17 08:30:07;;;;;;;10.10;8.80;;;;;;;23.33;53.20;101548.34;107891;1254;61252;-73
2023/09/17 08:32:34;;;;;;;10.40;8.80;;;;;;;23.47;52.14;101544.52;109232;1254;60288;-73
2023/09/17 08:35:01;;;;;;;9.40;8.30;;;;;;;23.56;50.97;101541.26;108645;1254;74418;-73
2023/09/17 08:37:29;;;;;;;9.30;8.00;;;;;;;23.64;50.43;101544.95;108107;1253;73311;-72
2023/09/17 08:39:55;;;;;;;10.20;8.50;;;;;;;23.74;49.57;101544.58;109197;1253;72478;-72
2023/09/17 08:42:22;;;;;;;11.80;8.10;;;;;;;23.87;48.84;101544.83;108081;1254;61909;-72
2023/09/17 08:44:49;;;;;;;9.50;7.90;;;;;;;23.97;47.81;101539.37;107974;1254;60178;-72
2023/09/17 08:47:16;;;;;;;11.20;7.70;;;;;;;24.07;47.01;101536.68;107974;1254;74684;-72
2023/09/17 08:49:43;;;;;;;9.60;7.50;;;;;;;24.18;46.69;101540.31;108064;1253;72780;-73
2023/09/17 08:52:12;;;;;;;9.00;8.10;;;;;;;24.27;46.48;101537.80;107997;1255;72587;-74
2023/09/17 08:54:41;;;;;;;9.50;7.80;;;;;;;24.34;45.75;101534.77;108021;1254;61460;-74
2023/09/17 08:57:08;;;;;;;9.00;8.00;;;;;;;24.39;45.90;101534.11;108182;1254;61071;-72
2023/09/17 08:59:39;;;;;;;9.40;8.30;;;;;;;24.44;45.61;101536.08;107924;1254;73195;-72
2023/09/17 09:02:13;;;;;;;9.00;8.10;;;;;;;24.49;45.00;101536.02;107965;1254;72564;-73
2023/09/17 09:04:43;;;;;;;10.50;8.00;;;;;;;24.53;44.38;101537.23;107869;1253;73054;-73
2023/09/17 09:07:09;;;;;;;9.00;7.70;;;;;;;24.62;43.42;101532.24;107952;1254;61144;-74
2023/09/17 09:09:36;;;;;;;9.00;7.40;;;;;;;24.68;43.02;101530.00;108097;1254;61162;-75
2023/09/17 09:12:04;;;;;;;8.80;7.30;;;;;;;24.78;43.16;101533.08;108040;1254;74615;-74
2023/09/17 09:14:31;;;;;;;8.10;7.10;;;;;;;24.90;42.92;101530.17;108083;1253;73526;-73
2023/09/17 09:17:00;;;;;;;8.80;7.30;;;;;;;24.97;41.88;101530.00;108109;1253;73036;-71
2023/09/17 09:19:27;;;;;;;8.70;7.20;;;;;;;25.02;41.82;101531.52;107924;1254;61292;-71
2023/09/17 09:21:54;;;;;;;7.80;6.80;;;;;;;25.08;40.85;101528.27;108154;1254;61090;-72
2023/09/17 09:24:23;;;;;;;7.50;6.10;;;;;;;25.08;41.19;101527.75;108145;1253;74834;-73
2023/09/17 09:26:50;;;;;;;6.50;5.70;;;;;;;25.18;40.87;101529.32;108455;1253;72586;-73
2023/09/17 09:29:17;;;;;;;6.30;5.70;;;;;;;25.31;40.53;101523.89;108090;1254;72855;-73
2023/09/17 09:31:44;;;;;;;7.20;5.70;;;;;;;25.43;40.10;101519.80;108027;1253;61272;-73
2023/09/17 09:34:11;;;;;;;6.50;5.80;;;;;;;25.55;39.84;101518.90;107653;1254;60200;-71
2023/09/17 09:36:44;;;;;;;6.40;5.70;;;;;;;25.64;39.72;101521.34;108039;1254;73272;-73
2023/09/17 09:39:14;;;;;;;6.50;5.70;;;;;;;25.68;39.45;101522.27;107960;1253;72869;-73
2023/09/17 09:41:41;;;;;;;6.80;5.90;;;;;;;25.74;39.50;101518.50;108208;1254;72464;-74
2023/09/17 09:44:07;;;;;;;6.80;5.80;;;;;;;25.85;38.83;101520.42;108160;1254;60409;-73
2023/09/17 09:46:36;;;;;;;8.30;6.00;;;;;;;25.97;38.75;101519.71;108275;1254;60235;-72
2023/09/17 09:49:04;;;;;;;6.60;5.70;;;;;;;26.08;38.26;101514.95;108097;1254;74563;-73
2023/09/17 09:51:31;;;;;;;7.10;5.80;;;;;;;26.15;38.35;101516.11;107910;1253;72002;-73
2023/09/17 09:53:59;;;;;;;6.80;6.00;;;;;;;26.24;38.21;101512.10;107940;1254;71133;-73
2023/09/17 09:56:28;;;;;;;6.30;5.70;;;;;;;26.30;37.68;101514.20;108057;1253;61255;-73
2023/09/17 09:58:57;;;;;;;5.80;5.00;;;;;;;26.33;37.60;101509.05;108107;1254;61152;-73
2023/09/17 10:01:25;;;;;;;6.40;5.50;;;;;;;26.35;36.39;101513.58;107956;1254;74463;-72
2023/09/17 10:03:56;;;;;;;7.80;5.70;;;;;;;26.33;37.14;101513.38;107773;1256;72016;-72
2023/09/17 10:06:23;;;;;;;6.80;5.60;;;;;;;26.40;37.26;101517.42;107995;1253;72445;-74
2023/09/17 10:08:52;;;;;;;6.80;5.70;;;;;;;26.47;37.25;101515.13;108011;1254;61221;-74
2023/09/17 10:11:19;;;;;;;7.10;5.60;;;;;;;26.51;37.77;101516.09;108034;1254;61144;-74
2023/09/17 10:13:46;;;;;;;8.10;5.90;;;;;;;26.58;37.90;101512.95;108149;1254;66113;-73
2023/09/17 10:16:14;;;;;;;7.00;5.60;;;;;;;26.61;37.80;101507.41;107874;1254;62780;-73
2023/09/17 10:18:42;;;;;;;6.10;5.50;;;;;;;26.62;37.64;101507.51;108080;1254;72823;-73
2023/09/17 10:21:09;;;;;;;6.00;5.40;;;;;;;26.65;36.87;101506.73;108063;1254;61371;-73
2023/09/17 10:23:36;;;;;;;5.70;5.10;;;;;;;26.66;36.70;101496.61;108016;1254;62239;-74
2023/09/17 10:26:04;;;;;;;7.40;5.30;;;;;;;26.67;36.18;101496.48;108121;1253;65921;-73
2023/09/17 10:28:34;;;;;;;8.20;5.90;;;;;;;26.64;36.25;101495.92;108313;1254;64591;-73
2023/09/17 10:31:01;;;;;;;6.40;5.30;;;;;;;26.68;36.12;101488.75;108067;1254;72666;-74
2023/09/17 10:33:29;;;;;;;5.90;5.00;;;;;;;26.75;36.41;101491.08;108098;1254;61227;-73
2023/09/17 10:35:57;;;;;;;6.40;5.30;;;;;;;26.80;36.51;101489.83;108109;1254;61138;-80
2023/09/17 10:38:26;;;;;;;7.20;5.40;;;;;;;26.84;36.07;101496.30;108141;1254;66079;-79
2023/09/17 10:40:54;;;;;;;6.60;5.00;;;;;;;26.88;35.84;101493.07;108040;1254;72747;-79
2023/09/17 10:43:21;;;;;;;6.20;5.30;;;;;;;26.93;35.50;101491.01;108051;1254;63902;-80
2023/09/17 10:45:48;;;;;;;7.40;5.40;;;;;;;26.91;35.81;101488.20;107942;1257;61263;-79
2023/09/17 10:48:15;;;;;;;6.80;5.00;;;;;;;26.89;35.72;101487.92;108194;1253;61201;-80
2023/09/17 10:50:42;;;;;;;7.10;5.60;;;;;;;26.87;35.27;101487.61;107987;1254;74373;-80
2023/09/17 10:53:09;;;;;;;6.20;5.60;;;;;;;26.82;35.44;101482.91;108097;1254;72680;-79
2023/09/17 10:55:40;;;;;;;6.10;5.00;;;;;;;26.83;35.82;101482.48;108210;1254;63734;-80
2023/09/17 10:58:28;;;;;;;6.00;4.90;;;;;;;26.88;36.22;101476.05;108105;1254;61214;-80
2023/09/17 11:00:57;;;;;;;6.10;5.50;;;;;;;26.96;36.09;101476.35;108094;1253;61221;-79
2023/09/17 11:03:29;;;;;;;7.80;5.30;;;;;;;27.01;35.68;101473.86;108036;1254;75197;-79
2023/09/17 11:05:56;;;;;;;6.70;5.20;;;;;;;26.99;35.49;101468.01;107850;1254;72576;-78
2023/09/17 11:08:23;;;;;;;6.20;5.10;;;;;;;27.01;35.43;101468.84;86033;1254;20002673;-80